sensor_id;sensor_type;location;lat;lon;timestamp;temperature;humidity
26035;DHT22;13809;48.632;11.576;2023-02-15T00:02:24;4.50;44.30
26035;DHT22;13809;48.632;11.576;2023-02-15T00:07:28;4.50;44.30
26035;DHT22;13809;48.632;11.576;2023-02-15T00:12:31;4.40;44.00
26035;DHT22;13809;48.632;11.576;2023-02-15T00:17:35;4.40;43.80
26035;DHT22;13809;48.632;11.576;2023-02-15T00:22:39;4.40;44.10
26035;DHT22;13809;48.632;11.576;2023-02-15T00:27:42;4.20;44.20
26035;DHT22;13809;48.632;11.576;2023-02-15T00:32:47;4.10;43.90
26035;DHT22;13809;48.632;11.576;2023-02-15T00:37:52;4.10;44.50
26035;DHT22;13809;48.632;11.576;2023-02-15T00:42:55;4.00;44.60
26035;DHT22;13809;48.632;11.576;2023-02-15T00:48:00;4.00;44.60
26035;DHT22;13809;48.632;11.576;2023-02-15T00:53:04;4.00;44.40
26035;DHT22;13809;48.632;11.576;2023-02-15T00:58:08;4.00;44.40
26035;DHT22;13809;48.632;11.576;2023-02-15T01:03:13;3.90;44.70
26035;DHT22;13809;48.632;11.576;2023-02-15T01:08:18;3.90;44.70
26035;DHT22;13809;48.632;11.576;2023-02-15T01:13:21;4.00;44.70
26035;DHT22;13809;48.632;11.576;2023-02-15T01:18:24;4.00;44.50
26035;DHT22;13809;48.632;11.576;2023-02-15T01:23:29;3.90;44.20
26035;DHT22;13809;48.632;11.576;2023-02-15T01:28:32;3.80;44.40
26035;DHT22;13809;48.632;11.576;2023-02-15T01:33:35;3.90;44.50
26035;DHT22;13809;48.632;11.576;2023-02-15T01:38:40;3.70;44.70
26035;DHT22;13809;48.632;11.576;2023-02-15T01:43:45;3.70;44.60
26035;DHT22;13809;48.632;11.576;2023-02-15T01:48:51;3.70;44.40
26035;DHT22;13809;48.632;11.576;2023-02-15T01:54:00;3.60;44.40
26035;DHT22;13809;48.632;11.576;2023-02-15T01:59:08;3.60;44.70
26035;DHT22;13809;48.632;11.576;2023-02-15T02:04:16;3.50;44.70
26035;DHT22;13809;48.632;11.576;2023-02-15T02:09:21;3.50;44.80
26035;DHT22;13809;48.632;11.576;2023-02-15T02:14:25;3.40;44.70
26035;DHT22;13809;48.632;11.576;2023-02-15T02:31:22;3.60;45.60
26035;DHT22;13809;48.632;11.576;2023-02-15T02:36:35;3.70;45.10
26035;DHT22;13809;48.632;11.576;2023-02-15T02:41:48;3.70;44.40
26035;DHT22;13809;48.632;11.576;2023-02-15T02:46:54;3.70;44.60
26035;DHT22;13809;48.632;11.576;2023-02-15T02:52:02;3.70;44.60
26035;DHT22;13809;48.632;11.576;2023-02-15T02:57:08;3.60;44.60
26035;DHT22;13809;48.632;11.576;2023-02-15T03:02:14;3.70;44.50
26035;DHT22;13809;48.632;11.576;2023-02-15T03:07:22;3.60;44.10
26035;DHT22;13809;48.632;11.576;2023-02-15T03:12:29;3.60;44.30
26035;DHT22;13809;48.632;11.576;2023-02-15T03:17:35;3.50;44.30
26035;DHT22;13809;48.632;11.576;2023-02-15T03:22:42;3.50;44.40
26035;DHT22;13809;48.632;11.576;2023-02-15T03:27:51;3.50;44.70
26035;DHT22;13809;48.632;11.576;2023-02-15T03:32:56;3.60;44.90
26035;DHT22;13809;48.632;11.576;2023-02-15T03:38:07;3.80;44.90
26035;DHT22;13809;48.632;11.576;2023-02-15T03:43:14;3.70;44.70
26035;DHT22;13809;48.632;11.576;2023-02-15T03:48:20;3.80;44.60
26035;DHT22;13809;48.632;11.576;2023-02-15T03:53:26;3.80;44.40
26035;DHT22;13809;48.632;11.576;2023-02-15T03:58:29;3.90;44.50
26035;DHT22;13809;48.632;11.576;2023-02-15T04:03:54;3.90;44.30
26035;DHT22;13809;48.632;11.576;2023-02-15T04:08:59;3.90;44.20
26035;DHT22;13809;48.632;11.576;2023-02-15T04:14:20;3.90;44.30
26035;DHT22;13809;48.632;11.576;2023-02-15T04:19:40;4.00;44.30
26035;DHT22;13809;48.632;11.576;2023-02-15T04:25:02;3.90;44.20
26035;DHT22;13809;48.632;11.576;2023-02-15T04:30:17;3.90;44.30
26035;DHT22;13809;48.632;11.576;2023-02-15T04:35:21;3.90;44.00
26035;DHT22;13809;48.632;11.576;2023-02-15T04:40:25;3.90;44.00
26035;DHT22;13809;48.632;11.576;2023-02-15T04:45:28;3.80;44.90
26035;DHT22;13809;48.632;11.576;2023-02-15T04:50:31;3.80;44.20
26035;DHT22;13809;48.632;11.576;2023-02-15T04:55:36;3.80;44.40
26035;DHT22;13809;48.632;11.576;2023-02-15T05:00:39;3.90;44.50
26035;DHT22;13809;48.632;11.576;2023-02-15T05:05:42;3.90;44.30
26035;DHT22;13809;48.632;11.576;2023-02-15T05:10:49;3.90;44.00
26035;DHT22;13809;48.632;11.576;2023-02-15T05:15:52;3.80;44.10
26035;DHT22;13809;48.632;11.576;2023-02-15T05:20:56;3.80;43.80
26035;DHT22;13809;48.632;11.576;2023-02-15T05:26:00;3.60;44.00
26035;DHT22;13809;48.632;11.576;2023-02-15T05:31:26;3.50;44.20
26035;DHT22;13809;48.632;11.576;2023-02-15T05:36:29;3.50;44.00
26035;DHT22;13809;48.632;11.576;2023-02-15T05:41:36;3.50;44.30
26035;DHT22;13809;48.632;11.576;2023-02-15T05:46:39;3.40;45.30
26035;DHT22;13809;48.632;11.576;2023-02-15T05:51:42;3.40;45.20
26035;DHT22;13809;48.632;11.576;2023-02-15T05:56:46;3.50;44.50
26035;DHT22;13809;48.632;11.576;2023-02-15T06:01:49;3.50;44.50
26035;DHT22;13809;48.632;11.576;2023-02-15T06:06:53;3.50;44.40
26035;DHT22;13809;48.632;11.576;2023-02-15T06:11:57;3.40;44.30
26035;DHT22;13809;48.632;11.576;2023-02-15T06:17:00;3.50;44.50
26035;DHT22;13809;48.632;11.576;2023-02-15T06:22:03;3.40;44.40
26035;DHT22;13809;48.632;11.576;2023-02-15T06:27:09;3.40;45.60
26035;DHT22;13809;48.632;11.576;2023-02-15T06:32:12;3.60;45.50
26035;DHT22;13809;48.632;11.576;2023-02-15T06:37:15;3.50;44.90
26035;DHT22;13809;48.632;11.576;2023-02-15T06:42:21;3.50;44.60
26035;DHT22;13809;48.632;11.576;2023-02-15T06:47:24;3.40;44.70
26035;DHT22;13809;48.632;11.576;2023-02-15T06:52:27;3.40;44.60
26035;DHT22;13809;48.632;11.576;2023-02-15T06:57:32;3.30;44.70
26035;DHT22;13809;48.632;11.576;2023-02-15T07:02:35;3.40;45.10
26035;DHT22;13809;48.632;11.576;2023-02-15T07:07:38;3.40;45.00
26035;DHT22;13809;48.632;11.576;2023-02-15T07:12:43;3.50;44.70
26035;DHT22;13809;48.632;11.576;2023-02-15T07:17:48;3.40;44.80
26035;DHT22;13809;48.632;11.576;2023-02-15T07:22:51;3.40;44.80
26035;DHT22;13809;48.632;11.576;2023-02-15T07:27:57;3.30;44.60
26035;DHT22;13809;48.632;11.576;2023-02-15T07:33:01;3.30;45.00
26035;DHT22;13809;48.632;11.576;2023-02-15T07:38:22;3.20;45.00
26035;DHT22;13809;48.632;11.576;2023-02-15T07:43:27;3.20;45.20
26035;DHT22;13809;48.632;11.576;2023-02-15T07:48:30;3.20;45.20
26035;DHT22;13809;48.632;11.576;2023-02-15T07:53:34;3.20;45.10
26035;DHT22;13809;48.632;11.576;2023-02-15T07:58:39;3.30;45.90
26035;DHT22;13809;48.632;11.576;2023-02-15T08:03:54;3.30;45.40
26035;DHT22;13809;48.632;11.576;2023-02-15T08:09:00;3.30;45.30
26035;DHT22;13809;48.632;11.576;2023-02-15T08:14:07;3.30;45.40
26035;DHT22;13809;48.632;11.576;2023-02-15T08:19:15;3.20;45.40
26035;DHT22;13809;48.632;11.576;2023-02-15T08:24:19;3.30;45.60
26035;DHT22;13809;48.632;11.576;2023-02-15T08:29:26;3.30;45.40
26035;DHT22;13809;48.632;11.576;2023-02-15T08:34:31;3.30;45.40
26035;DHT22;13809;48.632;11.576;2023-02-15T08:39:34;3.20;46.20
26035;DHT22;13809;48.632;11.576;2023-02-15T08:44:39;3.20;45.60
26035;DHT22;13809;48.632;11.576;2023-02-15T08:49:42;3.30;45.80
26035;DHT22;13809;48.632;11.576;2023-02-15T08:54:45;3.30;45.70
26035;DHT22;13809;48.632;11.576;2023-02-15T08:59:49;3.40;45.90
26035;DHT22;13809;48.632;11.576;2023-02-15T09:04:52;3.50;45.90
26035;DHT22;13809;48.632;11.576;2023-02-15T09:09:56;3.60;45.60
26035;DHT22;13809;48.632;11.576;2023-02-15T09:15:00;3.60;45.60
26035;DHT22;13809;48.632;11.576;2023-02-15T09:20:04;3.60;45.70
26035;DHT22;13809;48.632;11.576;2023-02-15T09:25:08;3.60;45.70
26035;DHT22;13809;48.632;11.576;2023-02-15T09:30:13;3.70;45.70
26035;DHT22;13809;48.632;11.576;2023-02-15T09:35:17;3.80;46.10
26035;DHT22;13809;48.632;11.576;2023-02-15T09:40:20;3.80;45.70
26035;DHT22;13809;48.632;11.576;2023-02-15T09:45:33;3.90;45.60
26035;DHT22;13809;48.632;11.576;2023-02-15T09:50:44;3.80;45.80
26035;DHT22;13809;48.632;11.576;2023-02-15T09:55:57;3.90;45.90
26035;DHT22;13809;48.632;11.576;2023-02-15T10:01:07;3.80;45.90
26035;DHT22;13809;48.632;11.576;2023-02-15T10:06:32;3.80;46.10
26035;DHT22;13809;48.632;11.576;2023-02-15T10:11:56;3.80;46.10
26035;DHT22;13809;48.632;11.576;2023-02-15T10:17:19;3.70;46.00
26035;DHT22;13809;48.632;11.576;2023-02-15T10:22:32;3.70;46.10
26035;DHT22;13809;48.632;11.576;2023-02-15T10:27:45;3.70;46.20
26035;DHT22;13809;48.632;11.576;2023-02-15T10:32:58;3.80;46.30
26035;DHT22;13809;48.632;11.576;2023-02-15T10:38:15;3.90;46.40
26035;DHT22;13809;48.632;11.576;2023-02-15T10:43:43;4.00;46.30
26035;DHT22;13809;48.632;11.576;2023-02-15T10:49:07;4.00;46.20
26035;DHT22;13809;48.632;11.576;2023-02-15T10:54:22;4.10;46.40
26035;DHT22;13809;48.632;11.576;2023-02-15T10:59:39;4.10;46.20
26035;DHT22;13809;48.632;11.576;2023-02-15T11:05:01;4.20;46.00
26035;DHT22;13809;48.632;11.576;2023-02-15T11:10:13;4.30;46.10
26035;DHT22;13809;48.632;11.576;2023-02-15T11:15:28;4.30;45.80
26035;DHT22;13809;48.632;11.576;2023-02-15T11:20:35;4.40;45.90
26035;DHT22;13809;48.632;11.576;2023-02-15T11:25:39;4.40;45.80
26035;DHT22;13809;48.632;11.576;2023-02-15T11:30:44;4.40;45.60
26035;DHT22;13809;48.632;11.576;2023-02-15T11:35:53;4.40;45.70
26035;DHT22;13809;48.632;11.576;2023-02-15T11:41:00;4.40;46.10
26035;DHT22;13809;48.632;11.576;2023-02-15T11:46:06;4.50;46.10
26035;DHT22;13809;48.632;11.576;2023-02-15T11:51:16;4.60;46.00
26035;DHT22;13809;48.632;11.576;2023-02-15T11:56:22;4.70;46.30
26035;DHT22;13809;48.632;11.576;2023-02-15T12:01:30;4.80;46.10
26035;DHT22;13809;48.632;11.576;2023-02-15T12:06:38;4.90;46.00
26035;DHT22;13809;48.632;11.576;2023-02-15T12:11:44;4.90;45.90
26035;DHT22;13809;48.632;11.576;2023-02-15T12:16:49;4.90;45.60
26035;DHT22;13809;48.632;11.576;2023-02-15T12:21:54;5.00;45.90
26035;DHT22;13809;48.632;11.576;2023-02-15T12:27:01;5.00;45.90
26035;DHT22;13809;48.632;11.576;2023-02-15T12:32:04;5.10;45.90
26035;DHT22;13809;48.632;11.576;2023-02-15T12:37:15;5.10;45.60
26035;DHT22;13809;48.632;11.576;2023-02-15T12:42:20;5.10;45.70
26035;DHT22;13809;48.632;11.576;2023-02-15T12:47:23;5.20;45.60
26035;DHT22;13809;48.632;11.576;2023-02-15T12:52:33;5.30;45.60
26035;DHT22;13809;48.632;11.576;2023-02-15T12:57:38;5.30;45.60
26035;DHT22;13809;48.632;11.576;2023-02-15T13:02:44;5.30;45.70
26035;DHT22;13809;48.632;11.576;2023-02-15T13:07:53;5.30;45.70
26035;DHT22;13809;48.632;11.576;2023-02-15T13:12:59;5.30;45.80
26035;DHT22;13809;48.632;11.576;2023-02-15T13:18:05;5.30;45.60
26035;DHT22;13809;48.632;11.576;2023-02-15T13:23:24;5.40;45.60
26035;DHT22;13809;48.632;11.576;2023-02-15T13:28:37;5.40;45.90
26035;DHT22;13809;48.632;11.576;2023-02-15T13:33:44;5.50;45.70
26035;DHT22;13809;48.632;11.576;2023-02-15T13:39:14;5.60;45.60
26035;DHT22;13809;48.632;11.576;2023-02-15T13:44:25;5.70;45.90
26035;DHT22;13809;48.632;11.576;2023-02-15T13:49:42;5.80;45.60
26035;DHT22;13809;48.632;11.576;2023-02-15T13:54:58;5.70;45.50
26035;DHT22;13809;48.632;11.576;2023-02-15T14:00:13;5.70;45.70
26035;DHT22;13809;48.632;11.576;2023-02-15T14:05:41;5.80;45.90
26035;DHT22;13809;48.632;11.576;2023-02-15T14:10:57;5.90;45.90
26035;DHT22;13809;48.632;11.576;2023-02-15T14:16:05;6.00;45.80
26035;DHT22;13809;48.632;11.576;2023-02-15T14:21:15;6.10;45.60
26035;DHT22;13809;48.632;11.576;2023-02-15T14:26:32;6.20;45.60
26035;DHT22;13809;48.632;11.576;2023-02-15T14:31:42;6.30;45.50
26035;DHT22;13809;48.632;11.576;2023-02-15T14:36:46;6.30;45.30
26035;DHT22;13809;48.632;11.576;2023-02-15T14:41:53;6.30;45.10
26035;DHT22;13809;48.632;11.576;2023-02-15T14:47:07;6.30;45.30
26035;DHT22;13809;48.632;11.576;2023-02-15T14:52:13;6.30;45.20
26035;DHT22;13809;48.632;11.576;2023-02-15T14:57:25;6.30;45.10
26035;DHT22;13809;48.632;11.576;2023-02-15T15:02:40;6.30;44.90
26035;DHT22;13809;48.632;11.576;2023-02-15T15:07:47;6.30;44.80
26035;DHT22;13809;48.632;11.576;2023-02-15T15:12:53;6.20;45.00
26035;DHT22;13809;48.632;11.576;2023-02-15T15:17:58;6.20;45.00
26035;DHT22;13809;48.632;11.576;2023-02-15T15:23:38;6.30;45.20
26035;DHT22;13809;48.632;11.576;2023-02-15T15:28:58;6.30;45.10
26035;DHT22;13809;48.632;11.576;2023-02-15T15:34:21;6.30;45.10
26035;DHT22;13809;48.632;11.576;2023-02-15T15:40:01;6.30;45.00
26035;DHT22;13809;48.632;11.576;2023-02-15T15:45:49;6.30;45.70
26035;DHT22;13809;48.632;11.576;2023-02-15T15:51:02;6.40;45.30
26035;DHT22;13809;48.632;11.576;2023-02-15T15:56:10;6.50;45.20
26035;DHT22;13809;48.632;11.576;2023-02-15T16:01:16;6.50;45.10
26035;DHT22;13809;48.632;11.576;2023-02-15T16:06:31;6.60;45.00
26035;DHT22;13809;48.632;11.576;2023-02-15T16:11:34;6.50;44.60
26035;DHT22;13809;48.632;11.576;2023-02-15T16:16:48;6.60;44.60
26035;DHT22;13809;48.632;11.576;2023-02-15T16:21:53;6.50;44.10
26035;DHT22;13809;48.632;11.576;2023-02-15T16:32:27;6.30;44.20
26035;DHT22;13809;48.632;11.576;2023-02-15T16:37:33;6.20;44.30
26035;DHT22;13809;48.632;11.576;2023-02-15T16:42:36;6.10;44.40
26035;DHT22;13809;48.632;11.576;2023-02-15T16:47:42;6.00;44.30
26035;DHT22;13809;48.632;11.576;2023-02-15T16:52:46;5.90;44.50
26035;DHT22;13809;48.632;11.576;2023-02-15T16:57:50;5.80;44.70
26035;DHT22;13809;48.632;11.576;2023-02-15T17:03:01;5.80;45.10
26035;DHT22;13809;48.632;11.576;2023-02-15T17:08:14;5.80;45.10
26035;DHT22;13809;48.632;11.576;2023-02-15T17:13:18;5.90;44.70
26035;DHT22;13809;48.632;11.576;2023-02-15T17:18:23;5.80;44.60
26035;DHT22;13809;48.632;11.576;2023-02-15T17:23:30;5.80;45.00
26035;DHT22;13809;48.632;11.576;2023-02-15T17:28:35;5.80;44.80
26035;DHT22;13809;48.632;11.576;2023-02-15T17:33:39;5.80;44.60
26035;DHT22;13809;48.632;11.576;2023-02-15T17:39:04;5.70;44.70
26035;DHT22;13809;48.632;11.576;2023-02-15T17:44:08;5.70;45.00
26035;DHT22;13809;48.632;11.576;2023-02-15T17:49:23;5.70;45.00
26035;DHT22;13809;48.632;11.576;2023-02-15T17:54:28;5.70;45.30
26035;DHT22;13809;48.632;11.576;2023-02-15T17:59:49;5.70;44.80
26035;DHT22;13809;48.632;11.576;2023-02-15T18:05:13;5.70;44.60
26035;DHT22;13809;48.632;11.576;2023-02-15T18:10:34;5.50;44.80
26035;DHT22;13809;48.632;11.576;2023-02-15T18:15:55;5.50;44.90
26035;DHT22;13809;48.632;11.576;2023-02-15T18:21:00;5.60;45.10
26035;DHT22;13809;48.632;11.576;2023-02-15T18:26:04;5.60;45.10
26035;DHT22;13809;48.632;11.576;2023-02-15T18:31:07;5.70;45.10
26035;DHT22;13809;48.632;11.576;2023-02-15T18:36:17;5.70;45.00
26035;DHT22;13809;48.632;11.576;2023-02-15T18:41:22;5.70;45.10
26035;DHT22;13809;48.632;11.576;2023-02-15T18:46:26;5.80;45.00
26035;DHT22;13809;48.632;11.576;2023-02-15T18:51:31;5.80;44.90
26035;DHT22;13809;48.632;11.576;2023-02-15T18:56:40;5.80;44.80
26035;DHT22;13809;48.632;11.576;2023-02-15T19:01:43;5.70;44.60
26035;DHT22;13809;48.632;11.576;2023-02-15T19:06:48;5.60;44.50
26035;DHT22;13809;48.632;11.576;2023-02-15T19:11:53;5.60;44.90
26035;DHT22;13809;48.632;11.576;2023-02-15T19:16:58;5.60;45.00
26035;DHT22;13809;48.632;11.576;2023-02-15T19:22:02;5.60;44.90
26035;DHT22;13809;48.632;11.576;2023-02-15T19:27:06;5.60;44.70
26035;DHT22;13809;48.632;11.576;2023-02-15T19:32:12;5.60;44.50
26035;DHT22;13809;48.632;11.576;2023-02-15T19:37:22;5.50;44.70
26035;DHT22;13809;48.632;11.576;2023-02-15T19:42:27;5.40;45.10
26035;DHT22;13809;48.632;11.576;2023-02-15T19:47:30;5.40;45.10
26035;DHT22;13809;48.632;11.576;2023-02-15T19:52:35;5.40;45.30
26035;DHT22;13809;48.632;11.576;2023-02-15T19:57:38;5.40;45.10
26035;DHT22;13809;48.632;11.576;2023-02-15T20:02:41;5.50;45.00
26035;DHT22;13809;48.632;11.576;2023-02-15T20:07:47;5.40;45.00
26035;DHT22;13809;48.632;11.576;2023-02-15T20:12:51;5.40;45.30
26035;DHT22;13809;48.632;11.576;2023-02-15T20:17:56;5.30;45.00
26035;DHT22;13809;48.632;11.576;2023-02-15T20:23:01;5.30;45.00
26035;DHT22;13809;48.632;11.576;2023-02-15T20:28:04;5.20;44.80
26035;DHT22;13809;48.632;11.576;2023-02-15T20:33:08;5.10;44.80
26035;DHT22;13809;48.632;11.576;2023-02-15T20:38:17;5.00;45.00
26035;DHT22;13809;48.632;11.576;2023-02-15T20:43:21;4.90;45.40
26035;DHT22;13809;48.632;11.576;2023-02-15T20:48:24;4.80;45.20
26035;DHT22;13809;48.632;11.576;2023-02-15T20:53:29;4.80;45.70
26035;DHT22;13809;48.632;11.576;2023-02-15T20:58:32;4.80;45.80
26035;DHT22;13809;48.632;11.576;2023-02-15T21:03:39;4.90;45.60
26035;DHT22;13809;48.632;11.576;2023-02-15T21:08:46;4.90;45.40
26035;DHT22;13809;48.632;11.576;2023-02-15T21:13:49;4.80;45.50
26035;DHT22;13809;48.632;11.576;2023-02-15T21:18:52;4.70;45.30
26035;DHT22;13809;48.632;11.576;2023-02-15T21:23:57;4.70;45.60
26035;DHT22;13809;48.632;11.576;2023-02-15T21:29:00;4.70;45.90
26035;DHT22;13809;48.632;11.576;2023-02-15T21:34:04;4.70;45.70
26035;DHT22;13809;48.632;11.576;2023-02-15T21:39:14;4.80;45.60
26035;DHT22;13809;48.632;11.576;2023-02-15T21:44:21;4.80;45.60
26035;DHT22;13809;48.632;11.576;2023-02-15T21:49:42;4.70;45.40
26035;DHT22;13809;48.632;11.576;2023-02-15T21:54:46;4.60;45.30
26035;DHT22;13809;48.632;11.576;2023-02-15T21:59:50;4.50;45.50
26035;DHT22;13809;48.632;11.576;2023-02-15T22:04:54;4.50;45.50
26035;DHT22;13809;48.632;11.576;2023-02-15T22:09:58;4.50;45.70
26035;DHT22;13809;48.632;11.576;2023-02-15T22:15:02;4.50;45.70
26035;DHT22;13809;48.632;11.576;2023-02-15T22:20:12;4.50;45.40
26035;DHT22;13809;48.632;11.576;2023-02-15T22:25:19;4.40;45.70
26035;DHT22;13809;48.632;11.576;2023-02-15T22:30:25;4.40;45.60
26035;DHT22;13809;48.632;11.576;2023-02-15T22:35:30;4.30;45.60
26035;DHT22;13809;48.632;11.576;2023-02-15T22:40:35;4.40;45.60
26035;DHT22;13809;48.632;11.576;2023-02-15T22:45:38;4.30;45.70
26035;DHT22;13809;48.632;11.576;2023-02-15T22:50:42;4.30;45.50
26035;DHT22;13809;48.632;11.576;2023-02-15T22:55:46;4.30;45.20
26035;DHT22;13809;48.632;11.576;2023-02-15T23:00:49;4.30;45.10
26035;DHT22;13809;48.632;11.576;2023-02-15T23:05:53;4.10;45.00
26035;DHT22;13809;48.632;11.576;2023-02-15T23:10:57;4.00;45.00
26035;DHT22;13809;48.632;11.576;2023-02-15T23:16:03;3.80;45.00
26035;DHT22;13809;48.632;11.576;2023-02-15T23:21:13;3.70;45.20
26035;DHT22;13809;48.632;11.576;2023-02-15T23:26:22;3.60;45.60
26035;DHT22;13809;48.632;11.576;2023-02-15T23:31:28;3.60;45.70
26035;DHT22;13809;48.632;11.576;2023-02-15T23:36:38;3.60;45.90
26035;DHT22;13809;48.632;11.576;2023-02-15T23:41:42;3.70;45.90
26035;DHT22;13809;48.632;11.576;2023-02-15T23:46:46;3.80;45.90
26035;DHT22;13809;48.632;11.576;2023-02-15T23:51:52;3.90;45.60
26035;DHT22;13809;48.632;11.576;2023-02-15T23:56:59;3.90;45.30
